createdAt,value
2019-03-17T00:01:37.325Z,5.52
2019-03-17T00:04:07.103Z,5.52
2019-03-17T00:06:37.711Z,5.40
2019-03-17T00:09:08.357Z,5.43
2019-03-17T00:11:37.991Z,5.36
2019-03-17T00:14:07.574Z,5.40
2019-03-17T00:16:43.131Z,5.20
2019-03-17T00:19:12.835Z,5.20
2019-03-17T00:21:42.564Z,5.25
2019-03-17T00:24:13.526Z,5.02
2019-03-17T00:26:43.112Z,5.23
2019-03-17T00:29:12.840Z,5.23
2019-03-17T00:31:42.530Z,5.13
2019-03-17T00:34:12.142Z,5.12
2019-03-17T00:36:42.321Z,5.12
2019-03-17T00:39:12.029Z,5.01
2019-03-17T00:41:41.656Z,5.11
2019-03-17T00:44:10.503Z,5.22
2019-03-17T00:46:39.945Z,5.21
2019-03-17T00:49:09.525Z,5.08
2019-03-17T00:51:39.117Z,4.99
2019-03-17T00:54:08.539Z,4.99
2019-03-17T00:56:38.045Z,5.03
2019-03-17T00:59:07.519Z,5.03
2019-03-17T01:01:37.152Z,5.07
2019-03-17T01:04:06.797Z,5.09
2019-03-17T01:06:36.577Z,5.11
2019-03-17T01:09:06.848Z,5.07
2019-03-17T01:11:36.587Z,5.07
2019-03-17T01:14:06.185Z,4.92
2019-03-17T01:16:35.803Z,4.92
2019-03-17T01:19:05.082Z,5.01
2019-03-17T01:21:34.822Z,4.76
2019-03-17T01:24:04.547Z,4.81
2019-03-17T01:26:34.197Z,4.56
2019-03-17T01:29:03.570Z,4.56
2019-03-17T01:31:32.800Z,4.43
2019-03-17T01:34:02.589Z,4.56
2019-03-17T01:36:32.323Z,4.64
2019-03-17T01:39:03.318Z,4.55
2019-03-17T01:41:32.800Z,4.55
2019-03-17T01:44:02.353Z,4.35
2019-03-17T01:46:32.121Z,4.22
2019-03-17T01:49:01.713Z,4.18
2019-03-17T01:51:30.486Z,4.22
2019-03-17T01:54:00.044Z,3.88
2019-03-17T01:56:29.536Z,3.88
2019-03-17T01:58:58.847Z,3.93
2019-03-17T02:01:28.314Z,3.99
2019-03-17T02:03:58.073Z,3.96
2019-03-17T02:06:28.040Z,3.96
2019-03-17T02:08:57.658Z,3.90
2019-03-17T02:11:26.487Z,3.87
2019-03-17T02:13:56.129Z,3.54
2019-03-17T02:16:25.565Z,3.54
2019-03-17T02:18:55.057Z,3.47
2019-03-17T02:21:24.551Z,3.47
2019-03-17T02:23:54.176Z,3.56
2019-03-17T02:26:23.802Z,3.56
2019-03-17T02:28:53.183Z,3.33
2019-03-17T02:31:22.864Z,3.14
2019-03-17T02:33:52.425Z,3.09
2019-03-17T02:36:21.809Z,3.08
2019-03-17T02:38:51.344Z,3.07
2019-03-17T02:41:21.015Z,3.11
2019-03-17T02:43:50.567Z,3.25
2019-03-17T02:46:20.072Z,3.30
2019-03-17T02:48:50.030Z,3.30
2019-03-17T02:51:19.756Z,3.29
2019-03-17T02:53:49.250Z,3.30
2019-03-17T02:56:18.881Z,3.17
2019-03-17T02:58:48.640Z,3.11
2019-03-17T03:01:17.501Z,2.95
2019-03-17T03:03:47.048Z,2.95
2019-03-17T03:06:16.829Z,2.95
2019-03-17T03:08:46.522Z,3.05
2019-03-17T03:11:15.905Z,2.94
2019-03-17T03:13:45.444Z,2.86
2019-03-17T03:16:15.050Z,2.95
2019-03-17T03:18:44.798Z,2.88
2019-03-17T03:21:14.316Z,2.97
2019-03-17T03:23:43.853Z,2.93
2019-03-17T03:26:13.312Z,2.92
2019-03-17T03:28:42.957Z,2.73
2019-03-17T03:31:12.786Z,2.86
2019-03-17T03:33:42.172Z,2.95
2019-03-17T03:36:12.641Z,3.11
2019-03-17T03:38:41.514Z,2.97
2019-03-17T03:41:11.111Z,2.91
2019-03-17T03:43:40.641Z,2.91
2019-03-17T03:46:10.038Z,2.57
2019-03-17T03:48:39.672Z,2.57
2019-03-17T03:51:08.500Z,2.64
2019-03-17T03:53:38.125Z,2.64
2019-03-17T03:56:07.809Z,2.64
2019-03-17T03:58:37.318Z,2.73
2019-03-17T04:01:06.977Z,2.70
2019-03-17T04:03:36.541Z,2.56
2019-03-17T04:06:06.144Z,2.54
2019-03-17T04:08:35.652Z,2.54
2019-03-17T04:11:04.286Z,2.46
2019-03-17T04:13:34.149Z,2.53
2019-03-17T04:16:03.695Z,2.47
2019-03-17T04:18:32.594Z,2.30
2019-03-17T04:21:02.268Z,2.22
2019-03-17T04:23:31.769Z,2.22
2019-03-17T04:26:01.526Z,2.27
2019-03-17T04:28:31.311Z,2.20
2019-03-17T04:31:00.880Z,2.20
2019-03-17T04:33:30.525Z,2.34
2019-03-17T04:36:00.086Z,2.29
2019-03-17T04:38:30.811Z,2.29
2019-03-17T04:41:00.327Z,2.36
2019-03-17T04:43:30.000Z,2.27
2019-03-17T04:45:59.804Z,2.37
2019-03-17T04:48:29.352Z,2.30
2019-03-17T04:50:59.124Z,2.27
2019-03-17T04:53:28.857Z,2.17
2019-03-17T04:55:58.319Z,2.30
2019-03-17T04:58:27.972Z,2.54
2019-03-17T05:00:57.670Z,2.39
2019-03-17T05:03:27.093Z,2.32
2019-03-17T05:05:56.952Z,2.42
2019-03-17T05:08:26.523Z,2.44
2019-03-17T05:10:56.057Z,2.36
2019-03-17T05:13:25.828Z,2.36
2019-03-17T05:15:55.582Z,2.68
2019-03-17T05:18:24.395Z,2.48
2019-03-17T05:20:53.841Z,2.28
2019-03-17T05:23:23.377Z,2.11
2019-03-17T05:27:10.435Z,2.13
2019-03-17T05:29:39.819Z,1.89
2019-03-17T05:32:09.517Z,1.87
2019-03-17T05:34:39.023Z,1.94
2019-03-17T05:37:08.521Z,1.94
2019-03-17T05:39:38.033Z,2.07
2019-03-17T05:42:07.677Z,2.07
2019-03-17T05:44:38.446Z,2.26
2019-03-17T05:47:07.813Z,2.35
2019-03-17T05:49:37.525Z,2.66
2019-03-17T05:52:07.094Z,2.59
2019-03-17T05:54:36.987Z,2.71
2019-03-17T05:57:07.003Z,2.83
2019-03-17T05:59:36.524Z,2.94
2019-03-17T06:02:06.137Z,3.22
2019-03-17T06:04:35.908Z,3.22
2019-03-17T06:07:17.659Z,3.44
2019-03-17T06:09:36.794Z,3.63
2019-03-17T06:12:06.127Z,3.53
2019-03-17T06:14:35.511Z,3.66
2019-03-17T06:17:04.998Z,4.17
2019-03-17T06:19:34.625Z,4.19
2019-03-17T06:22:03.376Z,4.59
2019-03-17T06:24:33.539Z,4.84
2019-03-17T06:27:03.103Z,5.08
2019-03-17T06:29:32.844Z,5.08
2019-03-17T06:32:02.135Z,4.76
2019-03-17T06:34:31.647Z,5.10
2019-03-17T06:37:00.476Z,5.03
2019-03-17T06:39:30.129Z,5.17
2019-03-17T06:41:59.811Z,5.54
2019-03-17T06:44:29.476Z,5.56
2019-03-17T06:46:59.028Z,5.47
2019-03-17T06:49:28.635Z,5.47
2019-03-17T06:51:57.477Z,5.26
2019-03-17T06:54:27.648Z,5.74
2019-03-17T06:56:57.295Z,6.00
2019-03-17T06:59:26.817Z,6.03
2019-03-17T07:01:56.148Z,6.22
2019-03-17T07:04:25.843Z,6.73
2019-03-17T07:06:55.453Z,6.81
2019-03-17T07:09:25.137Z,7.99
2019-03-17T07:11:54.825Z,7.99
2019-03-17T07:14:24.524Z,8.36
2019-03-17T07:16:54.037Z,8.87
2019-03-17T07:19:24.052Z,10.14
2019-03-17T07:21:53.652Z,11.26
2019-03-17T07:24:23.312Z,12.57
2019-03-17T07:26:52.804Z,14.17
2019-03-17T07:29:22.643Z,15.48
2019-03-17T07:31:51.497Z,17.72
2019-03-17T07:34:21.355Z,18.76
2019-03-17T07:36:51.078Z,18.76
2019-03-17T07:39:20.822Z,19.67
2019-03-17T07:41:50.718Z,20.90
2019-03-17T07:44:19.652Z,20.37
2019-03-17T07:46:48.530Z,21.09
2019-03-17T07:49:18.552Z,23.34
2019-03-17T07:51:47.468Z,25.48
2019-03-17T07:54:17.649Z,27.07
2019-03-17T07:56:46.483Z,27.87
2019-03-17T07:59:16.130Z,27.87
2019-03-17T08:01:45.801Z,28.14
2019-03-17T08:04:15.475Z,29.27
2019-03-17T08:06:45.143Z,29.30
2019-03-17T08:09:14.818Z,29.19
2019-03-17T08:11:44.593Z,29.78
2019-03-17T08:14:14.305Z,31.22
2019-03-17T08:16:43.793Z,32.97
2019-03-17T08:19:13.424Z,31.41
2019-03-17T08:21:43.370Z,33.04
2019-03-17T08:24:12.600Z,33.04
2019-03-17T08:26:42.527Z,33.12
2019-03-17T08:29:12.253Z,35.15
2019-03-17T08:31:41.843Z,35.15
2019-03-17T08:34:11.512Z,35.42
2019-03-17T08:36:40.261Z,37.90
2019-03-17T08:39:10.136Z,37.90
2019-03-17T08:41:39.821Z,38.44
2019-03-17T08:44:09.166Z,39.44
2019-03-17T08:46:38.653Z,38.73
2019-03-17T08:49:08.175Z,38.88
2019-03-17T08:51:37.877Z,37.55
2019-03-17T08:54:07.552Z,35.74
2019-03-17T08:56:36.819Z,31.39
2019-03-17T08:59:06.298Z,33.01
2019-03-17T09:01:36.106Z,34.43
2019-03-17T09:04:05.789Z,34.43
2019-03-17T09:06:35.455Z,33.19
2019-03-17T09:09:08.156Z,34.77
2019-03-17T09:13:26.784Z,34.34
2019-03-17T09:15:56.335Z,33.02
2019-03-17T09:18:26.894Z,32.33
2019-03-17T09:20:56.874Z,31.45
2019-03-17T09:23:26.602Z,31.35
2019-03-17T09:25:55.400Z,29.39
2019-03-17T09:28:25.026Z,29.39
2019-03-17T09:30:54.677Z,30.82
2019-03-17T09:33:26.098Z,30.84
2019-03-17T09:35:55.679Z,29.93
2019-03-17T09:38:25.150Z,29.55
2019-03-17T09:40:54.671Z,30.81
2019-03-17T09:43:24.110Z,29.54
2019-03-17T09:45:53.638Z,28.83
2019-03-17T09:48:22.561Z,29.45
2019-03-17T09:50:52.040Z,28.86
2019-03-17T09:53:21.555Z,28.86
2019-03-17T09:55:51.030Z,29.95
2019-03-17T09:58:20.715Z,29.95
2019-03-17T10:00:51.501Z,29.74
2019-03-17T10:03:20.471Z,31.49
2019-03-17T10:05:50.119Z,31.87
2019-03-17T10:08:19.883Z,31.87
2019-03-17T10:10:49.547Z,30.81
2019-03-17T10:13:18.404Z,29.09
2019-03-17T10:15:47.800Z,29.09
2019-03-17T10:18:17.310Z,27.73
2019-03-17T10:20:47.026Z,27.10
2019-03-17T10:23:16.675Z,26.37
2019-03-17T10:25:47.026Z,24.71
2019-03-17T10:28:16.544Z,24.04
2019-03-17T10:30:46.129Z,24.50
2019-03-17T10:33:15.717Z,24.50
2019-03-17T10:35:44.584Z,23.38
2019-03-17T10:38:13.725Z,23.55
2019-03-17T10:40:43.689Z,23.62
2019-03-17T10:43:13.551Z,23.94
2019-03-17T10:45:42.934Z,25.94
2019-03-17T10:48:12.483Z,25.94
2019-03-17T10:50:49.415Z,26.78
2019-03-17T10:53:13.472Z,27.90
2019-03-17T10:55:48.000Z,28.92
2019-03-17T10:58:26.444Z,30.98
2019-03-17T11:00:56.147Z,31.49
2019-03-17T11:03:25.557Z,31.49
2019-03-17T11:05:54.612Z,34.34
2019-03-17T11:08:24.213Z,33.51
2019-03-17T11:10:54.040Z,33.51
2019-03-17T11:13:24.469Z,33.59
2019-03-17T11:15:54.037Z,31.86
2019-03-17T11:18:23.635Z,30.84
2019-03-17T11:20:52.693Z,30.20
2019-03-17T11:23:22.476Z,28.80
2019-03-17T11:30:31.326Z,26.19
2019-03-17T11:33:03.859Z,27.43
2019-03-17T11:35:33.708Z,27.36
2019-03-17T11:38:03.599Z,28.96
2019-03-17T11:40:32.505Z,30.42
2019-03-17T11:43:02.076Z,31.44
2019-03-17T11:45:31.905Z,31.18
2019-03-17T11:48:01.557Z,31.30
2019-03-17T11:50:30.557Z,30.40
2019-03-17T11:52:59.666Z,29.79
2019-03-17T11:55:31.877Z,29.79
2019-03-17T11:58:01.658Z,28.81
2019-03-17T12:08:09.108Z,28.39
2019-03-17T12:22:16.592Z,27.88
2019-03-17T12:24:45.470Z,31.36
2019-03-17T12:27:15.021Z,28.96
2019-03-17T12:29:44.612Z,26.92
2019-03-17T12:32:14.672Z,25.02
2019-03-17T12:34:45.860Z,25.02
2019-03-17T12:37:16.111Z,24.36
2019-03-17T13:17:14.263Z,19.47
2019-03-17T13:19:05.575Z,19.53
2019-03-17T13:21:34.977Z,19.43
2019-03-17T14:46:11.623Z,9.53
2019-03-17T15:15:48.586Z,9.23
2019-03-17T15:20:34.663Z,9.01
2019-03-17T15:33:34.688Z,8.72
2019-03-17T15:36:54.752Z,8.30
2019-03-17T15:40:57.307Z,8.74
2019-03-17T16:10:46.067Z,8.98
2019-03-17T16:13:15.829Z,8.95
2019-03-17T16:15:45.567Z,9.07
2019-03-17T16:18:15.558Z,8.94
2019-03-17T16:20:45.593Z,9.21
2019-03-17T16:23:14.658Z,9.21
2019-03-17T16:25:44.392Z,9.19
2019-03-17T16:28:16.467Z,9.24
2019-03-17T16:30:46.072Z,9.02
2019-03-17T16:34:17.330Z,8.97
2019-03-17T17:06:29.208Z,8.72
2019-03-17T17:15:01.853Z,9.03
2019-03-17T17:35:14.553Z,8.86
2019-03-17T17:42:33.301Z,8.56
2019-03-17T18:01:53.936Z,8.43
2019-03-17T18:03:51.073Z,8.03
2019-03-17T18:06:12.615Z,8.25
2019-03-17T18:08:41.887Z,8.27
2019-03-17T18:11:11.708Z,8.27
2019-03-17T18:13:41.315Z,8.23
2019-03-17T18:23:16.892Z,8.46
2019-03-17T18:33:21.174Z,8.24
2019-03-17T18:35:50.832Z,8.51
2019-03-17T18:38:20.412Z,8.53
2019-03-17T18:40:50.088Z,8.75
2019-03-17T18:43:19.862Z,8.77
2019-03-17T18:45:49.594Z,8.60
2019-03-17T18:48:21.102Z,8.67
2019-03-17T18:50:51.138Z,8.51
2019-03-17T18:53:21.804Z,8.63
2019-03-17T18:55:51.906Z,8.26
2019-03-17T18:58:22.625Z,8.24
2019-03-17T19:00:52.121Z,8.33
2019-03-17T19:03:23.940Z,8.43
2019-03-17T19:05:54.835Z,8.29
2019-03-17T19:08:27.720Z,8.40
2019-03-17T19:10:57.897Z,8.32
2019-03-17T19:13:28.867Z,8.17
2019-03-17T19:15:59.301Z,8.21
2019-03-17T19:18:29.052Z,8.15
2019-03-17T19:20:58.786Z,8.31
2019-03-17T19:23:29.110Z,8.00
2019-03-17T19:25:58.807Z,8.19
2019-03-17T19:28:28.910Z,8.01
2019-03-17T19:30:58.639Z,8.17
2019-03-17T19:33:28.730Z,8.08
2019-03-17T19:35:57.759Z,7.83
2019-03-17T19:38:27.704Z,8.01
2019-03-17T19:41:02.983Z,8.17
2019-03-17T19:43:32.934Z,8.15
2019-03-17T19:46:02.972Z,8.00
2019-03-17T19:48:32.813Z,7.77
2019-03-17T19:51:02.575Z,7.98
2019-03-17T19:53:31.504Z,8.17
2019-03-17T19:56:01.186Z,7.92
2019-03-17T19:58:31.552Z,7.92
2019-03-17T20:01:00.524Z,7.52
2019-03-17T20:03:30.260Z,7.83
2019-03-17T20:06:02.837Z,7.99
2019-03-17T20:08:33.156Z,7.88
2019-03-17T20:11:02.695Z,7.93
2019-03-17T20:13:34.319Z,7.68
2019-03-17T20:16:04.127Z,7.89
2019-03-17T20:18:37.331Z,7.73
2019-03-17T20:21:07.488Z,7.81
2019-03-17T20:23:37.319Z,7.71
2019-03-17T20:26:07.753Z,7.71
2019-03-17T20:28:37.584Z,7.73
2019-03-17T20:31:06.556Z,8.00
2019-03-17T20:33:36.507Z,7.82
2019-03-17T20:36:06.631Z,7.78
2019-03-17T20:38:35.690Z,7.78
2019-03-17T20:41:06.597Z,7.67
2019-03-17T20:43:35.574Z,7.83
2019-03-17T20:46:05.512Z,7.58
2019-03-17T20:48:35.590Z,7.68
2019-03-17T20:51:04.596Z,7.68
2019-03-17T20:53:33.676Z,7.45
2019-03-17T20:56:03.784Z,7.55
2019-03-17T20:58:33.551Z,7.42
2019-03-17T21:01:04.894Z,7.70
2019-03-17T21:03:34.722Z,7.52
2019-03-17T21:06:04.653Z,7.43
2019-03-17T21:08:33.496Z,7.71
2019-03-17T21:11:04.122Z,7.76
2019-03-17T21:13:45.880Z,7.43
2019-03-17T21:16:05.987Z,7.54
2019-03-17T21:18:35.922Z,7.23
2019-03-17T21:21:05.890Z,7.46
2019-03-17T21:23:35.711Z,7.14
2019-03-17T21:26:05.601Z,7.11
2019-03-17T21:28:35.507Z,7.04
2019-03-17T21:31:05.051Z,7.35
2019-03-17T21:33:34.535Z,7.30
2019-03-17T21:36:04.427Z,7.36
2019-03-17T21:38:34.323Z,7.36
2019-03-17T21:41:07.215Z,7.01
2019-03-17T21:43:38.346Z,7.16
2019-03-17T21:46:07.990Z,7.14
2019-03-17T21:48:38.460Z,7.20
2019-03-17T21:51:08.496Z,7.03
2019-03-17T21:53:38.528Z,7.10
2019-03-17T21:56:08.876Z,7.24
2019-03-17T21:58:38.569Z,7.24
2019-03-17T22:01:08.871Z,6.70
2019-03-17T22:03:38.493Z,6.70
2019-03-17T22:06:08.837Z,6.93
2019-03-17T22:08:38.726Z,6.84
2019-03-17T22:11:08.459Z,6.84
2019-03-17T22:13:38.159Z,6.70
2019-03-17T22:16:08.477Z,6.70
2019-03-17T22:18:40.577Z,6.66
2019-03-17T22:21:09.677Z,6.66
2019-03-17T22:23:39.211Z,6.71
2019-03-17T22:26:09.190Z,6.72
2019-03-17T22:28:38.864Z,6.77
2019-03-17T22:31:18.313Z,6.77
2019-03-17T22:33:48.150Z,6.50
2019-03-17T22:36:17.826Z,6.71
2019-03-17T22:38:47.898Z,6.70
2019-03-17T22:41:17.433Z,6.65
2019-03-17T22:43:46.946Z,6.52
2019-03-17T22:46:17.667Z,6.48
2019-03-17T22:48:46.563Z,6.36
2019-03-17T22:51:16.353Z,6.52
2019-03-17T22:53:46.063Z,6.52
2019-03-17T22:56:15.972Z,6.61
2019-03-17T22:58:45.520Z,6.77
2019-03-17T23:01:15.306Z,6.69
2019-03-17T23:03:44.912Z,6.76
2019-03-17T23:06:14.511Z,6.46
2019-03-17T23:08:45.490Z,6.26
2019-03-17T23:11:16.483Z,6.26
2019-03-17T23:13:46.312Z,5.91
2019-03-17T23:16:15.859Z,6.17
2019-03-17T23:18:45.314Z,6.17
2019-03-17T23:21:15.112Z,6.20
2019-03-17T23:23:44.536Z,5.95
2019-03-17T23:26:14.334Z,6.22
2019-03-17T23:28:44.342Z,6.22
2019-03-17T23:31:14.003Z,5.95
2019-03-17T23:33:43.826Z,6.15
2019-03-17T23:36:13.336Z,6.27
2019-03-17T23:38:43.059Z,6.20
2019-03-17T23:41:12.642Z,6.53
2019-03-17T23:43:43.154Z,6.14
2019-03-17T23:46:13.033Z,6.14
2019-03-17T23:48:42.687Z,6.58
2019-03-17T23:51:12.168Z,6.43
2019-03-17T23:53:41.531Z,6.32
2019-03-17T23:56:10.732Z,6.44
2019-03-17T23:58:39.341Z,6.35
